Time;durP1;ratioP1;P1;durP2;ratioP2;P2;SDS_P1;SDS_P2;PMS_P1;PMS_P2;Temp;Humidity;BMP_temperature;BMP_pressure;BME280_temperature;BME280_humidity;BME280_pressure;Samples;Min_cycle;Max_cycle;Signal;HPM_P1;HPM_P2
2022/04/15 08:03:41;;;;;;;;;23.75;19.00;;;;;;;;5167269;27;79618;-71
2022/04/15 08:06:06;;;;;;;;;23.50;20.00;;;;;;;;5151346;27;23771;-70
2022/04/15 08:08:32;;;;;;;;;11.50;8.25;;;;;;;;5151342;27;11522;-70
2022/04/15 08:10:57;;;;;;;;;24.75;22.00;;;;;;;;5151319;27;22386;-70
2022/04/15 08:13:23;;;;;;;;;22.50;22.25;;;;;;;;5148578;27;26035;-70
2022/04/15 08:15:50;;;;;;;;;29.25;29.25;;;;;;;;5150882;27;11485;-70
2022/04/15 08:18:16;;;;;;;;;26.50;22.50;;;;;;;;5150383;27;11542;-71
2022/04/15 08:20:41;;;;;;;;;33.25;28.25;;;;;;;;5150738;27;12641;-69
2022/04/15 08:23:09;;;;;;;;;25.00;23.75;;;;;;;;5148603;27;16096;-70
2022/04/15 08:25:34;;;;;;;;;22.00;22.00;;;;;;;;5137676;27;12315;-72
2022/04/15 08:27:59;;;;;;;;;19.75;17.50;;;;;;;;5128047;27;13370;-69
2022/04/15 08:30:25;;;;;;;;;15.50;15.50;;;;;;;;5128195;27;13343;-70
2022/04/15 08:32:51;;;;;;;;;14.75;13.00;;;;;;;;5129552;27;10518;-69
2022/04/15 08:35:17;;;;;;;;;12.00;11.33;;;;;;;;5128925;27;11469;-72
2022/04/15 08:37:42;;;;;;;;;13.00;11.00;;;;;;;;5131119;27;11742;-71
2022/04/15 08:40:08;;;;;;;;;9.00;9.00;;;;;;;;5134608;27;12028;-71
2022/04/15 08:42:34;;;;;;;;;9.33;9.00;;;;;;;;5139433;27;22176;-71
2022/04/15 08:45:00;;;;;;;;;8.50;8.50;;;;;;;;5139077;27;11439;-70
2022/04/15 08:47:28;;;;;;;;;10.00;10.00;;;;;;;;5142022;27;12481;-71
2022/04/15 08:49:53;;;;;;;;;8.00;8.00;;;;;;;;5138224;27;22524;-72
2022/04/15 08:52:19;;;;;;;;;10.33;10.00;;;;;;;;5140441;27;22700;-72
2022/04/15 08:54:44;;;;;;;;;13.00;10.00;;;;;;;;5141056;27;22445;-71
2022/04/15 08:57:10;;;;;;;;;9.00;9.00;;;;;;;;5146221;27;8842;-73
2022/04/15 08:59:36;;;;;;;;;11.33;9.00;;;;;;;;5150151;27;22129;-76
2022/04/15 09:02:01;;;;;;;;;7.00;7.00;;;;;;;;5147828;27;17241;-77
2022/04/15 09:04:26;;;;;;;;;8.00;8.00;;;;;;;;5135182;27;24583;-76
2022/04/15 09:06:55;;;;;;;;;14.67;11.00;;;;;;;;5150139;27;8954;-78
2022/04/15 09:09:24;;;;;;;;;10.50;9.00;;;;;;;;5143197;27;22574;-76
2022/04/15 09:11:50;;;;;;;;;9.75;9.00;;;;;;;;5141906;27;21610;-77
2022/04/15 09:14:15;;;;;;;;;9.25;9.25;;;;;;;;5140208;27;16984;-74
2022/04/15 09:16:42;;;;;;;;;10.00;10.00;;;;;;;;5136745;27;9512;-76
2022/04/15 09:19:07;;;;;;;;;17.25;15.75;;;;;;;;5130571;27;25938;-76
2022/04/15 09:21:33;;;;;;;;;10.00;10.00;;;;;;;;5123483;27;12124;-72
2022/04/15 09:23:59;;;;;;;;;12.33;11.00;;;;;;;;5129874;27;11394;-76
2022/04/15 09:26:25;;;;;;;;;7.67;7.67;;;;;;;;5130067;27;10903;-74
2022/04/15 09:28:51;;;;;;;;;6.25;6.25;;;;;;;;5128292;27;22490;-73
2022/04/15 09:31:17;;;;;;;;;21.75;21.00;;;;;;;;5129577;27;11913;-74
2022/04/15 09:33:50;;;;;;;;;22.33;22.33;;;;;;;;5128944;27;22913;-73
2022/04/15 09:36:26;;;;;;;;;25.25;23.75;;;;;;;;5120288;27;11483;-75
2022/04/15 09:38:57;;;;;;;;;10.00;10.00;;;;;;;;5118492;28;10846;-73
2022/04/15 09:41:23;;;;;;;;;17.25;16.25;;;;;;;;5124054;27;15556;-74
2022/04/15 09:43:52;;;;;;;;;17.50;15.25;;;;;;;;5130787;27;11785;-75
2022/04/15 09:46:18;;;;;;;;;12.75;12.75;;;;;;;;5126215;27;9663;-76
2022/04/15 09:49:02;;;;;;;;;8.00;8.00;;;;;;;;5118387;28;11582;-75
2022/04/15 09:51:33;;;;;;;;;7.75;6.50;;;;;;;;5120106;27;22948;-76
2022/04/15 09:54:01;;;;;;;;;6.50;6.25;;;;;;;;5119902;27;11892;-75
2022/04/15 09:56:32;;;;;;;;;6.25;4.75;;;;;;;;5102396;28;13632;-75
2022/04/15 09:59:01;;;;;;;;;5.00;5.00;;;;;;;;5120876;27;10046;-72
2022/04/15 10:01:28;;;;;;;;;6.25;5.75;;;;;;;;5118340;28;11732;-72
2022/04/15 10:03:54;;;;;;;;;6.75;6.00;;;;;;;;5120370;27;11383;-73
2022/04/15 10:06:20;;;;;;;;;6.33;6.33;;;;;;;;5122467;27;10284;-70
2022/04/15 10:08:45;;;;;;;;;6.00;5.00;;;;;;;;5130383;27;8829;-69
2022/04/15 10:11:12;;;;;;;;;6.33;6.33;;;;;;;;5134940;27;10554;-72
2022/04/15 10:13:38;;;;;;;;;4.75;4.75;;;;;;;;5133623;27;10385;-70
2022/04/15 10:16:04;;;;;;;;;8.25;8.25;;;;;;;;5120556;27;10449;-74
2022/04/15 10:18:30;;;;;;;;;7.33;6.00;;;;;;;;5119775;27;10794;-71
2022/04/15 10:20:55;;;;;;;;;7.50;7.50;;;;;;;;5118904;28;14105;-77
2022/04/15 10:23:21;;;;;;;;;7.00;6.00;;;;;;;;5120356;27;10745;-78
2022/04/15 10:25:49;;;;;;;;;4.00;4.00;;;;;;;;5118963;27;10356;-81
2022/04/15 10:28:18;;;;;;;;;8.50;8.50;;;;;;;;5121241;27;8933;-80
2022/04/15 10:30:51;;;;;;;;;7.25;7.00;;;;;;;;5118798;28;13735;-80
2022/04/15 10:33:32;;;;;;;;;10.75;10.75;;;;;;;;5120270;27;11408;-79
2022/04/15 10:35:58;;;;;;;;;6.00;6.00;;;;;;;;5120454;27;22337;-78
2022/04/15 10:38:24;;;;;;;;;7.00;7.00;;;;;;;;5119311;28;24518;-75
2022/04/15 10:40:49;;;;;;;;;6.33;6.33;;;;;;;;5120977;27;8872;-80
2022/04/15 10:43:22;;;;;;;;;14.33;12.00;;;;;;;;5120508;27;11562;-80
2022/04/15 10:45:48;;;;;;;;;11.33;10.00;;;;;;;;5120298;27;24852;-81
2022/04/15 10:48:13;;;;;;;;;5.00;3.67;;;;;;;;5138731;27;9033;-82
2022/04/15 10:50:40;;;;;;;;;11.00;10.00;;;;;;;;5136997;27;22413;-76
2022/04/15 10:53:15;;;;;;;;;8.00;7.00;;;;;;;;5136543;27;22474;-77
2022/04/15 10:55:43;;;;;;;;;7.33;4.67;;;;;;;;5136731;27;23070;-77
2022/04/15 10:58:14;;;;;;;;;10.33;9.00;;;;;;;;5138020;27;11531;-77
2022/04/15 11:03:26;;;;;;;;;4.67;4.00;;;;;;;;5135510;27;21325;-82
2022/04/15 11:05:53;;;;;;;;;6.33;6.00;;;;;;;;5139063;27;10731;-77
2022/04/15 11:08:25;;;;;;;;;4.00;4.00;;;;;;;;5137423;27;10394;-76
2022/04/15 11:10:50;;;;;;;;;5.33;4.00;;;;;;;;5137619;27;10400;-83
2022/04/15 11:13:24;;;;;;;;;5.00;4.00;;;;;;;;5136675;27;9259;-81
2022/04/15 11:16:24;;;;;;;;;6.67;5.00;;;;;;;;5135639;27;9485;-80
2022/04/15 11:18:50;;;;;;;;;4.75;4.00;;;;;;;;5127822;27;12221;-86
2022/04/15 11:21:16;;;;;;;;;3.75;3.75;;;;;;;;5134475;27;10522;-84
2022/04/15 11:23:42;;;;;;;;;3.67;3.67;;;;;;;;5135060;27;11523;-83
2022/04/15 11:26:07;;;;;;;;;4.75;4.75;;;;;;;;5139355;27;8810;-82
2022/04/15 11:28:36;;;;;;;;;6.00;5.75;;;;;;;;5138943;27;11292;-84
2022/04/15 11:31:02;;;;;;;;;5.33;5.00;;;;;;;;5137603;27;11071;-81
2022/04/15 11:33:27;;;;;;;;;7.00;7.00;;;;;;;;5136404;27;11335;-75
2022/04/15 11:35:52;;;;;;;;;7.75;6.75;;;;;;;;5135501;27;12402;-74
2022/04/15 11:38:17;;;;;;;;;5.00;4.00;;;;;;;;5137683;27;10291;-83
2022/04/15 11:40:43;;;;;;;;;5.00;4.00;;;;;;;;5137802;27;11727;-79
2022/04/15 11:43:11;;;;;;;;;6.00;5.00;;;;;;;;5138128;27;8843;-79
2022/04/15 11:45:43;;;;;;;;;7.50;7.00;;;;;;;;5120389;27;9207;-79
2022/04/15 11:48:14;;;;;;;;;4.25;4.00;;;;;;;;5122256;27;11100;-79
2022/04/15 11:50:40;;;;;;;;;7.50;7.50;;;;;;;;5128028;27;10371;-79
2022/04/15 11:53:06;;;;;;;;;6.50;5.25;;;;;;;;5127950;27;11360;-77
2022/04/15 11:55:33;;;;;;;;;5.75;5.00;;;;;;;;5128033;27;11828;-78
2022/04/15 11:57:59;;;;;;;;;9.00;9.00;;;;;;;;5117759;27;13582;-78
2022/04/15 12:00:31;;;;;;;;;10.00;9.25;;;;;;;;5130214;27;10999;-78
2022/04/15 12:03:00;;;;;;;;;12.00;12.00;;;;;;;;5126400;27;21561;-78
2022/04/15 12:05:26;;;;;;;;;37.50;30.50;;;;;;;;5127394;27;21446;-77
2022/04/15 12:07:52;;;;;;;;;6.25;6.25;;;;;;;;5135930;27;16846;-79
2022/04/15 12:10:17;;;;;;;;;32.50;27.75;;;;;;;;5127662;27;22721;-77
2022/04/15 12:12:42;;;;;;;;;21.00;18.00;;;;;;;;5125912;27;22722;-74
2022/04/15 12:15:08;;;;;;;;;4.00;4.00;;;;;;;;5125718;27;13297;-72
2022/04/15 12:17:33;;;;;;;;;3.75;3.75;;;;;;;;5127069;27;23627;-73
2022/04/15 12:19:59;;;;;;;;;3.00;3.00;;;;;;;;5125928;27;11354;-72
2022/04/15 12:22:24;;;;;;;;;2.50;2.50;;;;;;;;5125294;27;8847;-73
2022/04/15 12:24:49;;;;;;;;;5.00;4.75;;;;;;;;5127478;27;11456;-73
2022/04/15 12:27:16;;;;;;;;;6.50;6.00;;;;;;;;5127349;27;11330;-72
2022/04/15 12:29:51;;;;;;;;;13.00;11.25;;;;;;;;5126476;27;11392;-73
2022/04/15 12:32:24;;;;;;;;;6.25;5.00;;;;;;;;5126132;27;22631;-71
2022/04/15 12:34:55;;;;;;;;;6.75;6.25;;;;;;;;5134764;27;23433;-72
2022/04/15 12:37:35;;;;;;;;;6.75;6.00;;;;;;;;5138349;27;10358;-72
2022/04/15 12:40:06;;;;;;;;;4.50;4.50;;;;;;;;5138234;27;9707;-71
2022/04/15 12:42:33;;;;;;;;;7.00;6.00;;;;;;;;5137853;27;11394;-71
2022/04/15 12:45:00;;;;;;;;;6.50;6.00;;;;;;;;5135942;27;12030;-72
2022/04/15 12:47:26;;;;;;;;;8.25;7.50;;;;;;;;5137912;27;10038;-72
2022/04/15 12:49:51;;;;;;;;;6.00;5.00;;;;;;;;5140092;27;11746;-72
2022/04/15 12:52:17;;;;;;;;;5.50;5.00;;;;;;;;5141247;27;11329;-72
2022/04/15 12:54:55;;;;;;;;;2.75;2.75;;;;;;;;5137527;27;9102;-70
2022/04/15 12:57:20;;;;;;;;;2.25;1.25;;;;;;;;5120885;27;11460;-72
2022/04/15 12:59:45;;;;;;;;;5.50;5.50;;;;;;;;5119563;27;9533;-72
2022/04/15 13:02:11;;;;;;;;;2.50;2.00;;;;;;;;5120576;27;11320;-70
2022/04/15 13:04:36;;;;;;;;;1.00;1.00;;;;;;;;5120384;27;11290;-69
2022/04/15 13:07:02;;;;;;;;;1.75;1.75;;;;;;;;5120089;27;10258;-71
2022/04/15 13:09:27;;;;;;;;;1.00;1.00;;;;;;;;5120776;27;8810;-70
2022/04/15 13:11:53;;;;;;;;;0.00;0.00;;;;;;;;5120925;27;8925;-70
2022/04/15 13:14:18;;;;;;;;;1.67;1.67;;;;;;;;5121144;27;8821;-72
2022/04/15 13:16:43;;;;;;;;;0.67;0.00;;;;;;;;5121672;27;11328;-73
2022/04/15 13:19:09;;;;;;;;;1.00;1.00;;;;;;;;5121716;27;11539;-72
2022/04/15 13:21:34;;;;;;;;;3.33;2.00;;;;;;;;5140014;27;10265;-72
2022/04/15 13:24:00;;;;;;;;;2.00;2.00;;;;;;;;5142089;27;10350;-72
2022/04/15 13:26:26;;;;;;;;;3.50;2.00;;;;;;;;5141862;27;8773;-70
2022/04/15 13:28:51;;;;;;;;;1.33;1.33;;;;;;;;5141638;27;10749;-72
2022/04/15 13:31:16;;;;;;;;;2.00;2.00;;;;;;;;5139893;27;11462;-72
2022/04/15 13:33:42;;;;;;;;;1.00;1.00;;;;;;;;5130090;27;11465;-70
2022/04/15 13:36:07;;;;;;;;;3.00;2.00;;;;;;;;5140191;27;8906;-71
2022/04/15 13:38:33;;;;;;;;;1.33;1.33;;;;;;;;5141115;27;8764;-72
2022/04/15 13:40:59;;;;;;;;;1.00;1.00;;;;;;;;5140610;27;11334;-71
2022/04/15 13:43:24;;;;;;;;;1.75;1.75;;;;;;;;5141094;27;8959;-70
2022/04/15 13:45:49;;;;;;;;;1.50;1.00;;;;;;;;5141167;27;8799;-71
2022/04/15 13:48:14;;;;;;;;;2.00;2.00;;;;;;;;5141130;27;8822;-71
2022/04/15 13:50:40;;;;;;;;;2.25;2.25;;;;;;;;5141009;27;11506;-71
2022/04/15 13:58:33;;;;;;;;;3.67;2.00;;;;;;;;5141235;27;11334;-71
2022/04/15 14:00:58;;;;;;;;;3.00;1.00;;;;;;;;5140980;27;9338;-70
2022/04/15 14:03:23;;;;;;;;;1.67;1.67;;;;;;;;5140853;27;9594;-71
2022/04/15 14:05:48;;;;;;;;;1.00;1.00;;;;;;;;5140975;27;11258;-71
2022/04/15 14:08:14;;;;;;;;;2.00;2.00;;;;;;;;5141141;27;8800;-71
2022/04/15 14:10:39;;;;;;;;;1.33;1.00;;;;;;;;5140857;27;8814;-71
2022/04/15 14:13:04;;;;;;;;;2.00;2.00;;;;;;;;5140681;27;10232;-71
2022/04/15 14:15:30;;;;;;;;;1.00;1.00;;;;;;;;5140420;27;10242;-71
2022/04/15 14:17:58;;;;;;;;;1.00;1.00;;;;;;;;5141454;27;9493;-71
2022/04/15 14:20:23;;;;;;;;;3.00;3.00;;;;;;;;5140728;27;8919;-71
2022/04/15 14:22:49;;;;;;;;;2.00;2.00;;;;;;;;5140852;27;9267;-70
2022/04/15 14:25:14;;;;;;;;;3.00;1.33;;;;;;;;5140841;27;8784;-71
2022/04/15 14:27:39;;;;;;;;;3.00;1.67;;;;;;;;5139335;27;11632;-72
2022/04/15 14:30:05;;;;;;;;;2.00;2.00;;;;;;;;5141442;27;8798;-71
2022/04/15 14:32:30;;;;;;;;;1.00;1.00;;;;;;;;5141442;27;11367;-71
2022/04/15 14:34:57;;;;;;;;;1.00;1.00;;;;;;;;5141546;27;8850;-72
2022/04/15 14:37:22;;;;;;;;;2.00;2.00;;;;;;;;5141228;27;8803;-71
2022/04/15 14:39:48;;;;;;;;;1.33;1.00;;;;;;;;5140950;27;9755;-72
2022/04/15 14:42:14;;;;;;;;;2.25;1.00;;;;;;;;5140682;27;10239;-71
2022/04/15 14:44:39;;;;;;;;;3.50;2.00;;;;;;;;5140361;27;8784;-72
2022/04/15 14:47:04;;;;;;;;;1.67;1.00;;;;;;;;5141062;27;10358;-72
2022/04/15 14:49:30;;;;;;;;;2.00;2.00;;;;;;;;5138979;27;11571;-72
2022/04/15 14:51:55;;;;;;;;;1.50;1.50;;;;;;;;5140523;27;10269;-71
2022/04/15 14:54:21;;;;;;;;;1.33;1.33;;;;;;;;5139397;27;13311;-71
2022/04/15 14:56:47;;;;;;;;;4.00;2.00;;;;;;;;5140792;27;8876;-71
2022/04/15 14:59:12;;;;;;;;;2.00;2.00;;;;;;;;5140239;27;11420;-72
2022/04/15 15:01:38;;;;;;;;;2.00;2.00;;;;;;;;5139813;27;9510;-71
2022/04/15 15:04:03;;;;;;;;;1.67;1.67;;;;;;;;5140374;27;8878;-71
2022/04/15 15:06:29;;;;;;;;;1.25;1.25;;;;;;;;5139989;27;11578;-71
2022/04/15 15:08:54;;;;;;;;;3.00;3.00;;;;;;;;5138096;27;10964;-71
2022/04/15 15:11:19;;;;;;;;;2.25;2.25;;;;;;;;5139930;27;11675;-71
2022/04/15 15:13:44;;;;;;;;;1.00;1.00;;;;;;;;5140661;27;11329;-71
2022/04/15 15:16:10;;;;;;;;;2.67;2.00;;;;;;;;5140254;27;13059;-72
2022/04/15 15:18:35;;;;;;;;;2.75;2.75;;;;;;;;5140322;27;12127;-72
2022/04/15 15:21:01;;;;;;;;;2.00;1.00;;;;;;;;5140243;27;8804;-73
2022/04/15 15:23:27;;;;;;;;;0.00;0.00;;;;;;;;5140335;27;10546;-71
2022/04/15 15:31:19;;;;;;;;;1.00;1.00;;;;;;;;5140396;27;9281;-72
2022/04/15 15:33:45;;;;;;;;;3.00;2.00;;;;;;;;5139734;27;9407;-71
2022/04/15 15:36:14;;;;;;;;;1.67;1.67;;;;;;;;5140375;27;8792;-71
2022/04/15 15:38:43;;;;;;;;;1.00;1.00;;;;;;;;5139529;27;11915;-68
2022/04/15 15:41:12;;;;;;;;;2.33;1.67;;;;;;;;5139557;27;10356;-69
2022/04/15 15:43:39;;;;;;;;;1.00;1.00;;;;;;;;5138027;27;14255;-70
2022/04/15 15:46:04;;;;;;;;;2.33;1.33;;;;;;;;5139359;27;11500;-69
2022/04/15 15:48:29;;;;;;;;;2.00;2.00;;;;;;;;5133518;27;11754;-70
2022/04/15 15:50:54;;;;;;;;;3.00;2.00;;;;;;;;5120366;27;10497;-71
2022/04/15 15:53:20;;;;;;;;;1.00;1.00;;;;;;;;5129270;27;8818;-70
2022/04/15 15:55:45;;;;;;;;;2.75;2.25;;;;;;;;5128396;27;8918;-70
2022/04/15 15:58:11;;;;;;;;;2.00;2.00;;;;;;;;5126642;27;11534;-69
2022/04/15 16:00:37;;;;;;;;;1.25;1.25;;;;;;;;5129036;27;8805;-70
2022/04/15 16:03:02;;;;;;;;;1.00;1.00;;;;;;;;5125644;27;11504;-71
2022/04/15 16:05:28;;;;;;;;;3.50;2.00;;;;;;;;5128085;27;8780;-70
2022/04/15 16:07:54;;;;;;;;;3.25;2.00;;;;;;;;5126798;27;10296;-70
2022/04/15 16:10:19;;;;;;;;;3.00;3.00;;;;;;;;5129164;27;12168;-70
2022/04/15 16:12:45;;;;;;;;;2.50;2.00;;;;;;;;5127130;27;9676;-68
2022/04/15 16:15:11;;;;;;;;;3.75;2.00;;;;;;;;5126826;27;10396;-69
2022/04/15 16:17:37;;;;;;;;;2.00;2.00;;;;;;;;5128056;27;9462;-68
2022/04/15 16:20:03;;;;;;;;;2.00;2.00;;;;;;;;5127781;27;9621;-68
2022/04/15 16:22:30;;;;;;;;;2.00;1.00;;;;;;;;5126248;27;8825;-67
2022/04/15 16:24:56;;;;;;;;;1.75;1.00;;;;;;;;5129664;27;9609;-68
2022/04/15 16:27:21;;;;;;;;;2.00;2.00;;;;;;;;5126811;27;9475;-66
2022/04/15 16:29:47;;;;;;;;;1.00;1.00;;;;;;;;5130003;27;10715;-68
2022/04/15 16:32:13;;;;;;;;;1.67;1.67;;;;;;;;5132195;27;8900;-67
2022/04/15 16:34:38;;;;;;;;;1.00;1.00;;;;;;;;5129503;27;8761;-69
2022/04/15 16:37:04;;;;;;;;;2.00;2.00;;;;;;;;5126219;27;9483;-66
2022/04/15 16:39:29;;;;;;;;;2.00;2.00;;;;;;;;5130948;27;8826;-68
2022/04/15 16:41:54;;;;;;;;;1.00;1.00;;;;;;;;5136966;27;9011;-68
2022/04/15 16:44:19;;;;;;;;;1.00;1.00;;;;;;;;5132286;27;8916;-66
2022/04/15 16:46:45;;;;;;;;;3.00;2.00;;;;;;;;5133901;27;9603;-68
2022/04/15 16:49:10;;;;;;;;;2.00;2.00;;;;;;;;5125964;27;10526;-68
2022/04/15 16:51:37;;;;;;;;;2.00;2.00;;;;;;;;5128311;27;8935;-67
2022/04/15 16:54:02;;;;;;;;;1.50;1.50;;;;;;;;5125986;27;8818;-67
2022/04/15 16:59:32;;;;;;;;;2.75;2.00;;;;;;;;5074223;28;11370;-67
2022/04/15 17:01:57;;;;;;;;;3.00;2.00;;;;;;;;5074966;28;9727;-68
2022/04/15 17:04:22;;;;;;;;;1.75;1.75;;;;;;;;5075540;28;9191;-68
2022/04/15 17:06:49;;;;;;;;;2.00;2.00;;;;;;;;5076605;28;11844;-68
2022/04/15 17:09:15;;;;;;;;;3.00;3.00;;;;;;;;5077251;28;15297;-68
2022/04/15 17:11:40;;;;;;;;;9.00;9.00;;;;;;;;5078298;28;9625;-70
2022/04/15 17:14:07;;;;;;;;;3.25;3.25;;;;;;;;5078076;28;8911;-70
2022/04/15 17:16:35;;;;;;;;;3.00;2.00;;;;;;;;5077648;28;11426;-70
2022/04/15 17:19:01;;;;;;;;;3.00;2.00;;;;;;;;5078066;28;10330;-70
2022/04/15 17:21:26;;;;;;;;;2.50;1.50;;;;;;;;5077811;28;10229;-69
2022/04/15 17:23:52;;;;;;;;;2.25;2.25;;;;;;;;5077514;28;11366;-69
2022/04/15 17:26:20;;;;;;;;;2.75;1.75;;;;;;;;5077854;28;11489;-69
2022/04/15 17:28:45;;;;;;;;;3.00;2.00;;;;;;;;5078272;28;9598;-69
2022/04/15 17:31:11;;;;;;;;;4.00;4.00;;;;;;;;5120060;27;14228;-70
2022/04/15 17:33:36;;;;;;;;;3.00;3.00;;;;;;;;5119120;28;9060;-69
2022/04/15 17:36:02;;;;;;;;;3.50;3.50;;;;;;;;5120450;27;9793;-70
2022/04/15 17:38:28;;;;;;;;;3.00;3.00;;;;;;;;5121635;27;8840;-70
2022/04/15 17:40:55;;;;;;;;;2.50;2.00;;;;;;;;5140754;27;8741;-69
2022/04/15 17:43:22;;;;;;;;;2.00;2.00;;;;;;;;5137735;27;13621;-69
2022/04/15 17:45:48;;;;;;;;;1.50;1.50;;;;;;;;5140497;27;9840;-70
2022/04/15 17:48:13;;;;;;;;;3.00;3.00;;;;;;;;5138524;27;11352;-70
2022/04/15 17:50:39;;;;;;;;;1.50;1.25;;;;;;;;5129933;27;12679;-69
2022/04/15 17:53:04;;;;;;;;;2.00;2.00;;;;;;;;5129257;27;11577;-71
2022/04/15 17:55:31;;;;;;;;;3.75;3.00;;;;;;;;5128985;27;11837;-67
2022/04/15 17:57:57;;;;;;;;;3.00;3.00;;;;;;;;5137312;27;10461;-68
2022/04/15 18:00:22;;;;;;;;;3.00;3.00;;;;;;;;5141704;27;10494;-68
2022/04/15 18:02:50;;;;;;;;;2.75;2.75;;;;;;;;5134014;27;8832;-69
2022/04/15 18:05:17;;;;;;;;;2.00;2.00;;;;;;;;5128992;27;11383;-67
2022/04/15 18:07:42;;;;;;;;;2.00;2.00;;;;;;;;5126578;27;9862;-68
2022/04/15 18:10:08;;;;;;;;;4.25;2.00;;;;;;;;5132093;27;10044;-68
2022/04/15 18:12:33;;;;;;;;;4.50;2.75;;;;;;;;5141137;27;8808;-68
2022/04/15 18:14:59;;;;;;;;;2.00;2.00;;;;;;;;5141443;27;8822;-69
2022/04/15 18:17:26;;;;;;;;;2.75;2.75;;;;;;;;5135386;27;13170;-67
2022/04/15 18:19:51;;;;;;;;;1.00;1.00;;;;;;;;5128027;27;8829;-67
2022/04/15 18:22:17;;;;;;;;;5.00;2.00;;;;;;;;5129757;27;12456;-67
2022/04/15 18:24:42;;;;;;;;;1.75;1.75;;;;;;;;5126708;27;8865;-67
2022/04/15 18:27:08;;;;;;;;;2.50;2.50;;;;;;;;5119022;27;11281;-68
2022/04/15 18:29:33;;;;;;;;;4.00;2.50;;;;;;;;5120613;27;11475;-69
2022/04/15 18:31:58;;;;;;;;;3.25;2.25;;;;;;;;5135289;27;8838;-69
2022/04/15 18:34:24;;;;;;;;;3.25;3.25;;;;;;;;5140442;27;11296;-72
2022/04/15 18:36:49;;;;;;;;;3.25;2.25;;;;;;;;5137899;27;8955;-71
2022/04/15 18:39:15;;;;;;;;;3.25;2.50;;;;;;;;5130789;27;8807;-70
2022/04/15 18:41:41;;;;;;;;;2.50;2.00;;;;;;;;5131145;27;8818;-69
2022/04/15 18:44:07;;;;;;;;;3.50;3.50;;;;;;;;5134790;27;11747;-71
2022/04/15 18:46:32;;;;;;;;;5.00;5.00;;;;;;;;5138155;27;11651;-71
2022/04/15 18:54:26;;;;;;;;;10.25;9.00;;;;;;;;5138016;27;22154;-69
2022/04/15 18:56:53;;;;;;;;;10.50;7.00;;;;;;;;5136294;27;24630;-69
2022/04/15 18:59:19;;;;;;;;;2.75;2.00;;;;;;;;5138783;27;10659;-68
2022/04/15 19:01:44;;;;;;;;;5.00;5.00;;;;;;;;5137699;27;21461;-67
2022/04/15 19:04:09;;;;;;;;;6.00;6.00;;;;;;;;5138153;27;10464;-69
2022/04/15 19:06:36;;;;;;;;;8.50;8.50;;;;;;;;5137620;27;10528;-69
2022/04/15 19:09:02;;;;;;;;;9.00;8.50;;;;;;;;5136984;27;11573;-67
2022/04/15 19:11:27;;;;;;;;;8.50;6.75;;;;;;;;5137913;27;10725;-68
2022/04/15 19:13:55;;;;;;;;;15.50;12.50;;;;;;;;5134761;27;11536;-67
2022/04/15 19:16:21;;;;;;;;;10.00;6.00;;;;;;;;5134197;27;23411;-68
2022/04/15 19:18:46;;;;;;;;;22.00;18.50;;;;;;;;5135521;27;24662;-68
2022/04/15 19:21:12;;;;;;;;;49.75;39.75;;;;;;;;5137189;27;22632;-68
2022/04/15 19:23:37;;;;;;;;;29.00;25.00;;;;;;;;5137402;27;14552;-67
2022/04/15 19:26:02;;;;;;;;;6.00;4.25;;;;;;;;5132872;27;13524;-68
2022/04/15 19:28:27;;;;;;;;;4.75;4.75;;;;;;;;5137795;27;23616;-69
2022/04/15 19:30:53;;;;;;;;;9.25;6.75;;;;;;;;5138759;27;10570;-69
2022/04/15 19:33:22;;;;;;;;;3.00;3.00;;;;;;;;5138579;27;9486;-69
2022/04/15 19:35:47;;;;;;;;;3.50;3.50;;;;;;;;5139238;27;11376;-69
2022/04/15 19:38:13;;;;;;;;;5.00;4.00;;;;;;;;5139214;27;10362;-69
2022/04/15 19:40:39;;;;;;;;;6.00;5.75;;;;;;;;5137979;27;12027;-71
2022/04/15 19:43:04;;;;;;;;;7.00;7.00;;;;;;;;5139818;27;11297;-72
2022/04/15 19:45:30;;;;;;;;;9.75;8.00;;;;;;;;5139336;27;11568;-69
2022/04/15 19:47:56;;;;;;;;;10.75;10.25;;;;;;;;5139905;27;11619;-71
2022/04/15 19:50:21;;;;;;;;;5.50;5.00;;;;;;;;5139119;27;22401;-70
2022/04/15 19:52:49;;;;;;;;;5.75;4.00;;;;;;;;5139359;27;23562;-69
2022/04/15 19:55:14;;;;;;;;;8.00;5.25;;;;;;;;5130076;27;9814;-71
2022/04/15 20:03:07;;;;;;;;;4.25;4.00;;;;;;;;5136079;27;11355;-69
2022/04/15 20:05:32;;;;;;;;;3.00;2.75;;;;;;;;5129169;27;11309;-69
2022/04/15 20:07:58;;;;;;;;;5.00;5.00;;;;;;;;5127016;27;11347;-68
2022/04/15 20:10:23;;;;;;;;;4.00;4.00;;;;;;;;5129703;27;11632;-68
2022/04/15 20:12:52;;;;;;;;;5.25;4.00;;;;;;;;5128129;27;8791;-69
2022/04/15 20:15:17;;;;;;;;;7.00;7.00;;;;;;;;5126215;27;9093;-68
2022/04/15 20:17:43;;;;;;;;;4.00;3.25;;;;;;;;5129555;27;11062;-69
2022/04/15 20:20:09;;;;;;;;;4.75;4.00;;;;;;;;5128336;27;11304;-68
2022/04/15 20:22:34;;;;;;;;;6.50;5.00;;;;;;;;5127498;27;10281;-70
2022/04/15 20:25:01;;;;;;;;;7.50;6.00;;;;;;;;5130321;27;10680;-68
2022/04/15 20:27:29;;;;;;;;;3.50;2.75;;;;;;;;5127992;27;8970;-69
2022/04/15 20:29:54;;;;;;;;;6.50;6.50;;;;;;;;5124602;27;11923;-68
2022/04/15 20:32:20;;;;;;;;;3.25;3.25;;;;;;;;5118013;27;11303;-71
2022/04/15 20:34:46;;;;;;;;;7.50;5.50;;;;;;;;5118562;27;11692;-69
2022/04/15 20:37:11;;;;;;;;;7.00;5.00;;;;;;;;5118771;27;12531;-69
2022/04/15 20:39:37;;;;;;;;;4.00;4.00;;;;;;;;5119195;27;9094;-68
2022/04/15 20:42:05;;;;;;;;;6.50;4.00;;;;;;;;5118969;27;9024;-68
2022/04/15 20:44:30;;;;;;;;;6.50;4.50;;;;;;;;5118502;28;9037;-68
2022/04/15 20:46:56;;;;;;;;;4.00;4.00;;;;;;;;5118494;27;11005;-69
2022/04/15 20:52:08;;;;;;;;;5.00;5.00;;;;;;;;5118341;28;8889;-69
2022/04/15 20:54:34;;;;;;;;;7.25;4.50;;;;;;;;5118684;27;11683;-69
2022/04/15 20:56:59;;;;;;;;;4.50;4.50;;;;;;;;5117951;27;11298;-68
2022/04/15 20:59:24;;;;;;;;;7.75;7.00;;;;;;;;5118342;27;8867;-69
2022/04/15 21:01:50;;;;;;;;;7.25;5.00;;;;;;;;5117490;27;12564;-68
2022/04/15 21:04:15;;;;;;;;;7.00;5.00;;;;;;;;5117875;27;8791;-69
2022/04/15 21:06:41;;;;;;;;;3.75;2.25;;;;;;;;5115809;28;8856;-69
2022/04/15 21:09:07;;;;;;;;;5.25;4.50;;;;;;;;5117138;27;11685;-67
2022/04/15 21:11:32;;;;;;;;;4.50;4.00;;;;;;;;5121873;27;11695;-69
2022/04/15 21:13:58;;;;;;;;;5.00;5.00;;;;;;;;5121594;27;11315;-68
2022/04/15 21:16:23;;;;;;;;;7.00;7.00;;;;;;;;5121609;27;10551;-68
2022/04/15 21:18:49;;;;;;;;;4.75;3.50;;;;;;;;5121362;27;9564;-69
2022/04/15 21:21:14;;;;;;;;;12.50;8.75;;;;;;;;5121372;27;11316;-69
2022/04/15 21:23:40;;;;;;;;;7.50;7.50;;;;;;;;5119100;28;23975;-69
2022/04/15 21:26:07;;;;;;;;;7.00;5.00;;;;;;;;5120765;27;21507;-69
2022/04/15 21:28:32;;;;;;;;;7.00;7.00;;;;;;;;5121969;27;11111;-68
2022/04/15 21:30:58;;;;;;;;;7.00;4.00;;;;;;;;5121561;28;11168;-68
2022/04/15 21:33:23;;;;;;;;;4.50;4.25;;;;;;;;5121421;27;8811;-68
2022/04/15 21:35:49;;;;;;;;;7.75;7.00;;;;;;;;5119397;27;11410;-69
2022/04/15 21:38:15;;;;;;;;;5.00;5.00;;;;;;;;5119479;28;13695;-69
2022/04/15 21:40:41;;;;;;;;;5.00;5.00;;;;;;;;5119317;28;11395;-70
2022/04/15 21:43:07;;;;;;;;;8.75;4.25;;;;;;;;5119845;28;9861;-68
2022/04/15 21:45:33;;;;;;;;;7.00;5.00;;;;;;;;5121046;27;11584;-69
2022/04/15 21:47:58;;;;;;;;;3.75;3.75;;;;;;;;5121277;27;11482;-69
2022/04/15 21:52:30;;;;;;;;;5.25;4.00;;;;;;;;5121518;27;11383;-69
2022/04/15 21:53:08;;;;;;;;;8.00;5.50;;;;;;;;5138216;27;11406;-68
2022/04/15 21:55:34;;;;;;;;;7.00;4.25;;;;;;;;5138015;27;11480;-68
2022/04/15 21:57:59;;;;;;;;;8.25;7.25;;;;;;;;5140412;27;13793;-68
2022/04/15 22:00:56;;;;;;;;;9.50;8.00;;;;;;;;5140414;27;10325;-68
2022/04/15 22:03:22;;;;;;;;;7.00;6.00;;;;;;;;5077000;28;11391;-67
2022/04/15 22:05:47;;;;;;;;;5.00;4.50;;;;;;;;5077520;28;11456;-68
2022/04/15 22:08:12;;;;;;;;;8.25;6.50;;;;;;;;5077664;28;11318;-67
2022/04/15 22:10:37;;;;;;;;;3.50;3.00;;;;;;;;5056093;28;11123;-68
2022/04/15 22:13:03;;;;;;;;;7.25;5.50;;;;;;;;5077262;27;11939;-68
2022/04/15 22:15:31;;;;;;;;;26.50;25.50;;;;;;;;5126741;27;13941;-69
2022/04/15 22:17:56;;;;;;;;;16.25;14.25;;;;;;;;5128425;27;22700;-69
2022/04/15 22:20:22;;;;;;;;;10.50;10.50;;;;;;;;5131044;27;13372;-69
2022/04/15 22:22:47;;;;;;;;;9.00;8.50;;;;;;;;5129312;27;11318;-67
2022/04/15 22:25:12;;;;;;;;;9.50;6.00;;;;;;;;5132070;27;22282;-70
2022/04/15 22:27:38;;;;;;;;;12.50;9.50;;;;;;;;5130221;27;10451;-69
2022/04/15 22:30:05;;;;;;;;;7.50;6.25;;;;;;;;5129454;27;23600;-68
2022/04/15 22:32:30;;;;;;;;;7.50;7.50;;;;;;;;5128860;27;21509;-68
2022/04/15 22:34:56;;;;;;;;;10.00;8.25;;;;;;;;5122094;27;11432;-69
2022/04/15 22:37:21;;;;;;;;;7.75;6.00;;;;;;;;5119834;27;22068;-68
2022/04/15 22:39:46;;;;;;;;;6.50;6.00;;;;;;;;5119964;27;21563;-69
2022/04/15 22:42:15;;;;;;;;;6.25;6.25;;;;;;;;5118869;28;10880;-69
2022/04/15 22:44:43;;;;;;;;;6.50;6.50;;;;;;;;5120513;27;9748;-69
2022/04/15 22:47:35;;;;;;;;;7.00;7.00;;;;;;;;5120721;27;11409;-68
2022/04/15 22:50:00;;;;;;;;;6.25;6.25;;;;;;;;5118517;28;13809;-68
2022/04/15 22:52:26;;;;;;;;;9.50;6.75;;;;;;;;5119664;27;11499;-69
2022/04/15 22:57:35;;;;;;;;;6.00;6.00;;;;;;;;5120616;28;11476;-69
2022/04/15 23:00:00;;;;;;;;;7.00;7.00;;;;;;;;5120058;27;11399;-69
2022/04/15 23:02:26;;;;;;;;;6.25;6.00;;;;;;;;5119156;27;8917;-69
2022/04/15 23:04:51;;;;;;;;;5.75;5.75;;;;;;;;5119766;27;10531;-70
2022/04/15 23:07:17;;;;;;;;;6.75;6.75;;;;;;;;5119553;27;11311;-69
2022/04/15 23:09:42;;;;;;;;;6.50;5.25;;;;;;;;5120022;27;8887;-69
2022/04/15 23:12:08;;;;;;;;;6.00;6.00;;;;;;;;5120826;27;9737;-69
2022/04/15 23:14:33;;;;;;;;;7.75;6.00;;;;;;;;5120622;28;10404;-69